createdAt,value
2019-03-08T00:00:31.989Z,11.00
2019-03-08T00:03:00.673Z,11.00
2019-03-08T00:05:29.240Z,11.00
2019-03-08T00:07:57.718Z,11.10
2019-03-08T00:10:26.301Z,11.10
2019-03-08T00:12:54.960Z,11.10
2019-03-08T00:15:23.440Z,11.20
2019-03-08T00:17:52.282Z,11.20
2019-03-08T00:20:20.737Z,11.20
2019-03-08T00:22:49.573Z,11.10
2019-03-08T00:25:18.144Z,11.10
2019-03-08T00:27:46.600Z,11.10
2019-03-08T00:30:18.056Z,11.10
2019-03-08T00:32:46.682Z,11.10
2019-03-08T00:35:15.378Z,11.00
2019-03-08T00:37:43.993Z,11.00
2019-03-08T00:40:13.801Z,11.00
2019-03-08T00:42:42.277Z,11.00
2019-03-08T00:45:15.266Z,11.00
2019-03-08T00:47:43.805Z,11.10
2019-03-08T00:50:12.666Z,11.00
2019-03-08T00:52:41.293Z,11.10
2019-03-08T00:55:11.846Z,11.10
2019-03-08T00:57:40.410Z,11.00
2019-03-08T01:00:13.427Z,11.00
2019-03-08T01:02:42.057Z,11.00
2019-03-08T01:05:11.017Z,11.00
2019-03-08T01:07:39.575Z,10.90
2019-03-08T01:10:11.529Z,10.90
2019-03-08T01:12:40.009Z,10.90
2019-03-08T01:15:11.605Z,10.80
2019-03-08T01:17:40.021Z,10.80
2019-03-08T01:20:10.433Z,10.80
2019-03-08T01:22:38.984Z,10.80
2019-03-08T01:25:07.560Z,10.80
2019-03-08T01:27:36.281Z,10.80
2019-03-08T01:30:10.717Z,10.70
2019-03-08T01:32:39.131Z,10.70
2019-03-08T01:35:08.308Z,10.70
2019-03-08T01:37:36.821Z,10.70
2019-03-08T01:40:07.663Z,10.70
2019-03-08T01:42:36.104Z,10.70
2019-03-08T01:45:07.162Z,10.80
2019-03-08T01:47:35.599Z,10.80
2019-03-08T01:50:06.077Z,10.80
2019-03-08T01:52:34.518Z,10.80
2019-03-08T01:55:03.991Z,10.80
2019-03-08T01:57:32.458Z,10.80
2019-03-08T02:00:00.923Z,10.80
2019-03-08T02:02:29.387Z,10.80
2019-03-08T02:04:57.878Z,10.80
2019-03-08T02:07:26.436Z,10.90
2019-03-08T02:09:54.864Z,10.80
2019-03-08T02:12:23.299Z,10.80
2019-03-08T02:14:51.726Z,10.70
2019-03-08T02:17:20.305Z,10.80
2019-03-08T02:19:48.728Z,10.70
2019-03-08T02:22:17.220Z,10.70
2019-03-08T02:24:45.896Z,10.70
2019-03-08T02:27:14.334Z,10.60
2019-03-08T02:29:42.823Z,10.60
2019-03-08T02:32:11.249Z,10.60
2019-03-08T02:34:39.677Z,10.50
2019-03-08T02:37:08.104Z,10.40
2019-03-08T02:39:36.709Z,10.30
2019-03-08T02:42:05.142Z,10.30
2019-03-08T02:44:33.649Z,10.30
2019-03-08T02:47:02.094Z,10.20
2019-03-08T02:49:30.604Z,10.20
2019-03-08T02:51:59.033Z,10.10
2019-03-08T02:54:27.616Z,10.00
2019-03-08T02:56:56.037Z,10.00
2019-03-08T02:59:24.471Z,10.00
2019-03-08T03:01:52.919Z,10.10
2019-03-08T03:04:21.555Z,10.00
2019-03-08T03:06:49.982Z,10.00
2019-03-08T03:09:18.514Z,10.00
2019-03-08T03:11:47.016Z,10.00
2019-03-08T03:14:15.448Z,9.90
2019-03-08T03:16:43.861Z,9.90
2019-03-08T03:19:12.300Z,9.80
2019-03-08T03:21:40.730Z,9.90
2019-03-08T03:24:09.145Z,9.90
2019-03-08T03:26:37.561Z,9.90
2019-03-08T03:29:05.999Z,9.80
2019-03-08T03:31:34.409Z,9.80
2019-03-08T03:34:02.904Z,9.80
2019-03-08T03:36:31.387Z,9.70
2019-03-08T03:38:59.869Z,9.70
2019-03-08T03:41:28.417Z,9.60
2019-03-08T03:43:56.900Z,9.50
2019-03-08T03:46:25.341Z,9.40
2019-03-08T03:48:53.749Z,9.40
2019-03-08T03:51:22.168Z,9.30
2019-03-08T03:53:50.661Z,9.30
2019-03-08T03:56:19.148Z,9.30
2019-03-08T03:58:47.668Z,9.20
2019-03-08T04:01:20.708Z,9.20
2019-03-08T04:03:49.238Z,9.20
2019-03-08T04:06:17.681Z,9.20
2019-03-08T04:08:46.089Z,9.20
2019-03-08T04:11:14.536Z,9.20
2019-03-08T04:13:42.951Z,9.10
2019-03-08T04:16:11.497Z,9.10
2019-03-08T04:18:39.933Z,9.10
2019-03-08T04:21:08.346Z,9.10
2019-03-08T04:23:36.855Z,9.10
2019-03-08T04:26:05.289Z,9.00
2019-03-08T04:28:33.800Z,9.00
2019-03-08T04:31:02.219Z,9.10
2019-03-08T04:33:30.717Z,9.10
2019-03-08T04:35:59.132Z,9.10
2019-03-08T04:38:27.558Z,9.10
2019-03-08T04:40:55.994Z,9.10
2019-03-08T04:43:24.415Z,9.20
2019-03-08T04:45:52.821Z,9.20
2019-03-08T04:48:21.250Z,9.20
2019-03-08T04:50:49.661Z,9.20
2019-03-08T04:53:18.109Z,9.20
2019-03-08T04:55:46.581Z,9.10
2019-03-08T04:58:15.019Z,9.10
2019-03-08T05:00:43.434Z,9.00
2019-03-08T05:03:11.856Z,9.00
2019-03-08T05:05:40.295Z,9.00
2019-03-08T05:08:08.909Z,9.00
2019-03-08T05:10:37.340Z,9.00
2019-03-08T05:13:05.846Z,9.00
2019-03-08T05:15:34.256Z,9.00
2019-03-08T05:18:02.701Z,9.00
2019-03-08T05:20:31.153Z,9.00
2019-03-08T05:22:59.728Z,9.00
2019-03-08T05:25:28.149Z,9.10
2019-03-08T05:27:56.567Z,9.10
2019-03-08T05:30:25.761Z,9.10
2019-03-08T05:32:54.180Z,9.10
2019-03-08T05:35:22.618Z,9.10
2019-03-08T05:37:51.302Z,9.10
2019-03-08T05:40:19.740Z,9.10
2019-03-08T05:42:48.156Z,9.10
2019-03-08T05:45:16.653Z,9.10
2019-03-08T05:47:45.103Z,9.10
2019-03-08T05:50:13.657Z,9.10
2019-03-08T05:52:42.433Z,9.10
2019-03-08T05:55:11.906Z,9.10
2019-03-08T05:57:40.470Z,9.00
2019-03-08T06:00:14.962Z,9.00
2019-03-08T06:02:43.374Z,9.00
2019-03-08T06:05:11.786Z,9.10
2019-03-08T06:07:40.311Z,9.00
2019-03-08T06:10:25.998Z,9.00
2019-03-08T06:12:54.430Z,9.10
2019-03-08T06:15:22.900Z,9.10
2019-03-08T06:17:51.337Z,9.10
2019-03-08T06:20:19.762Z,9.10
2019-03-08T06:22:48.217Z,9.10
2019-03-08T06:25:16.645Z,9.10
2019-03-08T06:27:45.181Z,9.10
2019-03-08T06:30:13.825Z,9.10
2019-03-08T06:32:42.278Z,9.10
2019-03-08T06:35:11.118Z,9.10
2019-03-08T06:37:39.617Z,9.10
2019-03-08T06:40:10.574Z,9.10
2019-03-08T06:42:39.082Z,9.10
2019-03-08T06:45:16.704Z,9.10
2019-03-08T06:47:45.516Z,9.20
2019-03-08T06:50:15.188Z,9.20
2019-03-08T06:52:43.808Z,9.20
2019-03-08T06:55:14.243Z,9.10
2019-03-08T06:57:42.818Z,9.10
2019-03-08T07:00:15.824Z,9.20
2019-03-08T07:02:44.247Z,9.20
2019-03-08T07:05:12.726Z,9.20
2019-03-08T07:07:41.136Z,9.20
2019-03-08T07:10:09.569Z,9.20
2019-03-08T07:12:38.021Z,9.20
2019-03-08T07:15:06.915Z,9.10
2019-03-08T07:17:35.602Z,9.10
2019-03-08T07:20:10.053Z,9.10
2019-03-08T07:22:42.894Z,9.10
2019-03-08T07:25:29.334Z,9.10
2019-03-08T07:28:15.388Z,9.10
2019-03-08T07:30:45.508Z,9.10
2019-03-08T07:33:15.589Z,9.20
2019-03-08T07:35:45.657Z,9.20
2019-03-08T07:38:32.189Z,9.20
2019-03-08T07:41:08.009Z,9.20
2019-03-08T07:43:46.888Z,9.20
2019-03-08T07:46:19.460Z,9.20
2019-03-08T07:48:49.610Z,9.20
2019-03-08T07:51:19.716Z,9.30
2019-03-08T07:53:49.895Z,9.40
2019-03-08T07:56:25.981Z,9.40
2019-03-08T07:58:56.035Z,9.50
2019-03-08T08:01:26.122Z,9.50
2019-03-08T08:04:01.919Z,9.60
2019-03-08T08:06:41.076Z,9.60
2019-03-08T08:09:12.570Z,9.70
2019-03-08T08:11:58.912Z,9.70
2019-03-08T08:14:39.493Z,9.70
2019-03-08T08:17:12.490Z,9.80
2019-03-08T08:19:57.400Z,9.80
2019-03-08T08:22:43.749Z,9.80
2019-03-08T08:25:13.797Z,9.90
2019-03-08T08:27:53.220Z,9.90
2019-03-08T08:30:35.064Z,10.00
2019-03-08T08:33:05.193Z,9.90
2019-03-08T08:35:35.275Z,10.00
2019-03-08T08:38:21.556Z,10.00
2019-03-08T08:41:06.687Z,10.00
2019-03-08T08:43:36.769Z,10.10
2019-03-08T08:46:18.658Z,10.00
2019-03-08T08:48:48.782Z,10.10
2019-03-08T08:51:19.055Z,10.00
2019-03-08T08:54:00.870Z,10.00
2019-03-08T08:56:46.904Z,10.00
2019-03-08T08:59:17.262Z,10.10
2019-03-08T09:01:53.384Z,10.10
2019-03-08T09:04:39.441Z,10.20
2019-03-08T09:07:25.746Z,10.20
2019-03-08T09:09:55.800Z,10.30
2019-03-08T09:12:28.603Z,10.30
2019-03-08T09:15:07.352Z,10.40
2019-03-08T09:17:53.444Z,10.40
2019-03-08T09:20:39.826Z,10.50
2019-03-08T09:23:10.056Z,10.60
2019-03-08T09:25:40.114Z,10.70
2019-03-08T09:28:21.984Z,10.70
2019-03-08T09:30:52.033Z,10.80
2019-03-08T09:33:30.717Z,10.80
2019-03-08T09:36:00.762Z,10.90
2019-03-08T09:38:33.810Z,11.00
2019-03-08T09:41:21.726Z,11.10
2019-03-08T09:44:04.258Z,11.10
2019-03-08T09:46:34.386Z,11.20
2019-03-08T09:49:16.052Z,11.20
2019-03-08T09:52:02.470Z,11.20
2019-03-08T09:54:35.529Z,11.20
2019-03-08T09:57:08.388Z,11.20
2019-03-08T09:59:47.281Z,11.30
2019-03-08T10:02:20.301Z,11.30
2019-03-08T10:04:50.374Z,11.30
2019-03-08T10:07:20.492Z,11.30
2019-03-08T10:09:50.662Z,11.20
2019-03-08T10:12:26.699Z,11.20
2019-03-08T10:14:59.355Z,11.20
2019-03-08T10:17:29.466Z,11.20
2019-03-08T10:19:59.544Z,11.10
2019-03-08T10:22:32.276Z,11.10
2019-03-08T10:25:02.451Z,11.10
2019-03-08T10:27:48.588Z,11.10
2019-03-08T10:30:21.544Z,11.10
2019-03-08T10:32:51.665Z,11.10
2019-03-08T10:35:39.734Z,11.10
2019-03-08T10:38:12.328Z,11.10
2019-03-08T10:40:44.841Z,11.30
2019-03-08T10:43:31.077Z,11.50
2019-03-08T10:46:01.270Z,11.80
2019-03-08T10:48:37.185Z,12.10
2019-03-08T10:51:07.322Z,12.20
2019-03-08T10:53:37.402Z,12.40
2019-03-08T10:56:13.323Z,12.60
2019-03-08T10:58:45.930Z,12.90
2019-03-08T11:01:31.981Z,13.10
2019-03-08T11:04:02.064Z,13.20
2019-03-08T11:06:32.133Z,13.20
2019-03-08T11:09:08.152Z,13.30
2019-03-08T11:11:46.895Z,13.30
2019-03-08T11:14:22.779Z,13.40
2019-03-08T11:16:52.826Z,13.50
2019-03-08T11:19:31.747Z,13.60
2019-03-08T11:22:04.297Z,13.60
2019-03-08T11:24:43.466Z,13.50
2019-03-08T11:27:16.535Z,13.60
2019-03-08T11:29:46.622Z,13.80
2019-03-08T11:32:23.027Z,13.60
2019-03-08T11:34:54.240Z,13.50
2019-03-08T11:37:24.308Z,13.40
2019-03-08T11:39:54.384Z,13.30
2019-03-08T11:42:24.508Z,13.20
2019-03-08T11:45:03.741Z,13.00
2019-03-08T11:47:33.806Z,12.90
2019-03-08T11:50:20.260Z,12.90
2019-03-08T11:53:02.460Z,12.90
2019-03-08T11:55:32.572Z,12.80
2019-03-08T11:58:08.576Z,12.70
2019-03-08T12:00:41.460Z,12.70
2019-03-08T12:03:14.458Z,12.60
2019-03-08T12:05:50.602Z,12.60
2019-03-08T12:08:26.481Z,12.50
2019-03-08T12:11:23.898Z,12.50
2019-03-08T12:13:53.965Z,12.50
2019-03-08T12:16:39.873Z,12.40
2019-03-08T12:19:22.273Z,12.40
2019-03-08T12:22:10.166Z,12.40
2019-03-08T12:24:46.325Z,12.50
2019-03-08T12:27:16.454Z,12.50
2019-03-08T12:29:58.615Z,12.60
2019-03-08T12:32:31.812Z,12.80
2019-03-08T12:35:17.800Z,13.10
2019-03-08T12:37:53.740Z,13.60
2019-03-08T12:40:23.795Z,13.90
2019-03-08T12:43:08.664Z,14.20
2019-03-08T12:45:38.754Z,14.50
2019-03-08T12:48:23.440Z,14.70
2019-03-08T12:51:02.183Z,14.60
2019-03-08T12:53:32.397Z,14.60
2019-03-08T12:56:02.463Z,14.50
2019-03-08T12:58:38.369Z,14.40
2019-03-08T13:01:24.406Z,14.20
2019-03-08T13:03:54.481Z,14.00
2019-03-08T13:06:27.522Z,13.80
2019-03-08T13:09:03.762Z,13.60
2019-03-08T13:11:33.547Z,13.50
2019-03-08T13:14:02.120Z,13.40
2019-03-08T13:16:30.528Z,13.40
2019-03-08T13:18:59.066Z,13.30
2019-03-08T13:21:27.503Z,13.20
2019-03-08T13:23:55.973Z,13.10
2019-03-08T13:26:24.465Z,13.00
2019-03-08T13:28:52.915Z,12.90
2019-03-08T13:31:21.360Z,12.80
2019-03-08T13:33:49.845Z,12.80
2019-03-08T13:36:18.300Z,13.00
2019-03-08T13:38:46.837Z,13.00
2019-03-08T13:41:15.364Z,13.00
2019-03-08T13:43:43.912Z,12.90
2019-03-08T13:46:12.342Z,12.90
2019-03-08T13:48:40.762Z,12.90
2019-03-08T13:51:09.335Z,13.20
2019-03-08T13:53:37.770Z,13.40
2019-03-08T13:56:06.225Z,13.40
2019-03-08T13:58:34.642Z,13.50
2019-03-08T14:01:03.071Z,13.40
2019-03-08T14:03:31.481Z,13.30
2019-03-08T14:05:59.923Z,13.20
2019-03-08T14:08:28.348Z,13.10
2019-03-08T14:10:56.785Z,13.10
2019-03-08T14:13:25.204Z,13.00
2019-03-08T14:15:53.932Z,13.00
2019-03-08T14:18:22.389Z,13.00
2019-03-08T14:20:50.864Z,13.10
2019-03-08T14:23:19.327Z,13.10
2019-03-08T14:25:47.763Z,13.00
2019-03-08T14:28:16.189Z,12.90
2019-03-08T14:30:46.264Z,12.90
2019-03-08T14:33:14.727Z,12.80
2019-03-08T14:35:43.178Z,12.80
2019-03-08T14:38:11.694Z,12.80
2019-03-08T14:40:43.256Z,12.80
2019-03-08T14:43:16.936Z,13.00
2019-03-08T14:46:03.002Z,13.20
2019-03-08T14:48:31.458Z,13.30
2019-03-08T14:51:00.157Z,13.40
2019-03-08T14:53:32.598Z,13.50
2019-03-08T14:55:59.322Z,13.60
2019-03-08T14:58:28.433Z,13.60
2019-03-08T15:00:56.849Z,13.60
2019-03-08T15:03:25.312Z,13.60
2019-03-08T15:05:54.819Z,13.60
2019-03-08T15:08:23.975Z,13.70
2019-03-08T15:10:52.406Z,13.70
2019-03-08T15:13:23.986Z,13.70
2019-03-08T15:15:51.078Z,13.60
2019-03-08T15:18:19.546Z,13.60
2019-03-08T15:20:47.974Z,13.40
2019-03-08T15:23:17.085Z,13.30
2019-03-08T15:25:49.114Z,13.20
2019-03-08T15:28:16.821Z,13.10
2019-03-08T15:30:45.433Z,13.00
2019-03-08T15:33:13.837Z,13.00
2019-03-08T15:35:42.364Z,13.00
2019-03-08T15:38:10.802Z,13.00
2019-03-08T15:40:39.266Z,13.00
2019-03-08T15:43:09.739Z,13.00
2019-03-08T15:45:40.029Z,13.00
2019-03-08T15:48:11.012Z,13.00
2019-03-08T15:50:38.291Z,12.90
2019-03-08T15:53:06.720Z,12.90
2019-03-08T15:55:35.434Z,12.80
2019-03-08T15:58:03.926Z,12.70
2019-03-08T16:00:32.631Z,12.70
2019-03-08T16:03:01.198Z,12.60
2019-03-08T16:05:30.157Z,12.60
2019-03-08T16:08:01.772Z,12.60
2019-03-08T16:10:28.847Z,12.60
2019-03-08T16:12:58.158Z,12.60
2019-03-08T16:15:26.605Z,12.60
2019-03-08T16:17:55.097Z,12.60
2019-03-08T16:20:23.629Z,12.60
2019-03-08T16:22:52.106Z,12.60
2019-03-08T16:25:20.630Z,12.60
2019-03-08T16:27:49.962Z,12.60
2019-03-08T16:30:23.276Z,12.50
2019-03-08T16:32:59.418Z,12.50
2019-03-08T16:35:29.328Z,12.50
2019-03-08T16:38:08.006Z,12.50
2019-03-08T16:40:43.667Z,12.50
2019-03-08T16:43:13.605Z,12.50
2019-03-08T16:45:46.310Z,12.50
2019-03-08T16:48:16.250Z,12.50
2019-03-08T16:50:49.070Z,12.40
2019-03-08T16:53:18.966Z,12.40
2019-03-08T16:55:50.637Z,12.40
2019-03-08T16:58:32.554Z,12.40
2019-03-08T17:01:02.612Z,12.40
2019-03-08T17:03:32.705Z,12.40
2019-03-08T17:06:05.385Z,12.40
2019-03-08T17:08:41.507Z,12.30
2019-03-08T17:11:17.677Z,12.30
2019-03-08T17:13:50.484Z,12.30
2019-03-08T17:16:36.925Z,12.30
2019-03-08T17:19:12.139Z,12.30
2019-03-08T17:21:41.651Z,12.30
2019-03-08T17:24:11.846Z,12.30
2019-03-08T17:26:50.865Z,12.20
2019-03-08T17:29:23.778Z,12.20
2019-03-08T17:31:53.827Z,12.20
2019-03-08T17:34:38.533Z,12.20
2019-03-08T17:37:11.301Z,12.10
2019-03-08T17:39:44.400Z,12.10
2019-03-08T17:42:30.515Z,12.00
2019-03-08T17:45:12.473Z,12.00
2019-03-08T17:47:58.615Z,12.00
2019-03-08T17:50:28.769Z,11.90
2019-03-08T17:53:14.648Z,11.90
2019-03-08T17:55:45.028Z,11.80
2019-03-08T17:58:21.180Z,11.80
2019-03-08T18:00:57.126Z,11.80
2019-03-08T18:03:27.205Z,11.80
2019-03-08T18:05:57.502Z,11.70
2019-03-08T18:08:42.460Z,11.70
2019-03-08T18:11:27.489Z,11.60
2019-03-08T18:14:03.595Z,11.60
2019-03-08T18:16:48.884Z,11.60
2019-03-08T18:19:30.859Z,11.50
2019-03-08T18:22:06.674Z,11.40
2019-03-08T18:24:52.866Z,11.40
2019-03-08T18:27:23.040Z,11.30
2019-03-08T18:29:53.279Z,11.20
2019-03-08T18:32:23.530Z,11.20
2019-03-08T18:34:53.599Z,11.20
2019-03-08T18:37:29.815Z,11.20
2019-03-08T18:40:11.876Z,11.20
2019-03-08T18:42:41.978Z,11.20
2019-03-08T18:45:17.576Z,11.10
2019-03-08T18:48:03.472Z,11.20
2019-03-08T18:50:42.754Z,11.10
2019-03-08T18:53:18.946Z,11.10
2019-03-08T18:56:01.148Z,11.00
2019-03-08T18:58:40.215Z,11.00
2019-03-08T19:01:22.256Z,10.90
2019-03-08T19:03:58.049Z,10.90
2019-03-08T19:06:34.260Z,10.90
2019-03-08T19:09:20.055Z,10.90
2019-03-08T19:11:52.942Z,10.90
2019-03-08T19:14:32.051Z,10.90
2019-03-08T19:17:02.279Z,10.90
2019-03-08T19:19:32.744Z,10.90
2019-03-08T19:22:08.905Z,10.80
2019-03-08T19:24:38.969Z,10.70
2019-03-08T19:27:25.231Z,10.70
2019-03-08T19:29:55.339Z,10.70
2019-03-08T19:32:25.528Z,10.70
2019-03-08T19:35:11.873Z,10.70
2019-03-08T19:37:51.107Z,10.70
2019-03-08T19:40:24.205Z,10.60
2019-03-08T19:43:10.603Z,10.60
2019-03-08T19:45:40.854Z,10.70
2019-03-08T19:48:13.929Z,10.60
2019-03-08T19:50:45.362Z,10.60
2019-03-08T19:53:30.771Z,10.60
2019-03-08T19:56:03.928Z,10.50
2019-03-08T19:58:49.984Z,10.50
2019-03-08T20:01:29.259Z,10.50
2019-03-08T20:03:59.480Z,10.50
2019-03-08T20:06:45.741Z,10.50
2019-03-08T20:09:15.936Z,10.50
2019-03-08T20:11:48.883Z,10.50
2019-03-08T20:14:28.128Z,10.50
2019-03-08T20:17:14.513Z,10.50
2019-03-08T20:19:47.351Z,10.50
2019-03-08T20:22:20.254Z,10.40
2019-03-08T20:25:06.162Z,10.40
2019-03-08T20:27:41.990Z,10.40
2019-03-08T20:30:25.872Z,10.50
2019-03-08T20:32:58.852Z,10.40
2019-03-08T20:35:31.606Z,10.40
2019-03-08T20:38:13.665Z,10.40
2019-03-08T20:40:58.701Z,10.40
2019-03-08T20:43:37.675Z,10.40
2019-03-08T20:46:10.664Z,10.40
2019-03-08T20:48:39.166Z,10.40
2019-03-08T20:51:07.834Z,10.40
2019-03-08T20:53:36.347Z,10.40
2019-03-08T20:56:05.006Z,10.40
2019-03-08T20:58:33.576Z,10.40
2019-03-08T21:01:02.176Z,10.40
2019-03-08T21:03:30.762Z,10.40
2019-03-08T21:05:59.272Z,10.40
2019-03-08T21:08:27.762Z,10.40
2019-03-08T21:10:56.278Z,10.40
2019-03-08T21:13:24.728Z,10.40
2019-03-08T21:15:53.237Z,10.40
2019-03-08T21:18:21.865Z,10.40
2019-03-08T21:20:50.493Z,10.40
2019-03-08T21:23:19.115Z,10.40
2019-03-08T21:25:47.580Z,10.40
2019-03-08T21:28:16.174Z,10.40
2019-03-08T21:30:44.710Z,10.40
2019-03-08T21:33:13.336Z,10.40
2019-03-08T21:35:41.797Z,10.40
2019-03-08T21:38:10.308Z,10.40
2019-03-08T21:40:38.758Z,10.40
2019-03-08T21:43:07.233Z,10.40
2019-03-08T21:45:35.735Z,10.40
2019-03-08T21:48:04.313Z,10.40
2019-03-08T21:50:32.841Z,10.40
2019-03-08T21:53:01.314Z,10.40
2019-03-08T21:55:29.813Z,10.40
2019-03-08T21:57:58.465Z,10.40
2019-03-08T22:00:27.333Z,10.50
2019-03-08T22:02:55.947Z,10.50
2019-03-08T22:05:26.264Z,10.40
2019-03-08T22:07:54.837Z,10.40
2019-03-08T22:10:30.735Z,10.40
2019-03-08T22:13:00.693Z,10.40
2019-03-08T22:15:29.375Z,10.40
2019-03-08T22:17:57.854Z,10.40
2019-03-08T22:20:26.310Z,10.40
2019-03-08T22:22:54.792Z,10.50
2019-03-08T22:25:24.287Z,10.40
2019-03-08T22:27:52.779Z,10.50
2019-03-08T22:30:21.660Z,10.40
2019-03-08T22:32:50.129Z,10.40
2019-03-08T22:35:18.790Z,10.40
2019-03-08T22:37:49.485Z,10.40
2019-03-08T22:40:18.048Z,10.40
2019-03-08T22:42:46.494Z,10.40
2019-03-08T22:45:14.940Z,10.40
2019-03-08T22:47:43.382Z,10.40
2019-03-08T22:50:14.029Z,10.40
2019-03-08T22:52:42.719Z,10.40
2019-03-08T22:55:12.878Z,10.40
2019-03-08T22:57:41.467Z,10.40
2019-03-08T23:00:35.079Z,10.30
2019-03-08T23:03:03.533Z,10.30
2019-03-08T23:05:31.962Z,10.30
2019-03-08T23:08:00.423Z,10.30
2019-03-08T23:10:28.877Z,10.30
2019-03-08T23:12:57.347Z,10.30
2019-03-08T23:15:25.773Z,10.20
2019-03-08T23:17:54.224Z,10.20
2019-03-08T23:20:22.669Z,10.20
2019-03-08T23:22:51.123Z,10.20
2019-03-08T23:25:19.624Z,10.20
2019-03-08T23:27:50.038Z,10.20
2019-03-08T23:30:20.199Z,10.20
2019-03-08T23:32:48.801Z,10.20
2019-03-08T23:35:17.347Z,10.10
2019-03-08T23:37:45.801Z,10.10
2019-03-08T23:40:14.571Z,10.10
2019-03-08T23:42:43.028Z,10.10
2019-03-08T23:45:11.605Z,10.10
2019-03-08T23:47:40.103Z,10.10
2019-03-08T23:50:09.782Z,10.10
2019-03-08T23:52:38.376Z,10.10
2019-03-08T23:55:09.709Z,10.10
2019-03-08T23:57:38.139Z,10.10
